Terminal Aerodrome Forecast
Issued by NWS

Home | Current Version | Previous Version | Graphics & Text | Print | Product List | Glossary On
Versions: 1 2 3 4 5 6 7 8 9 10 11 12 13 14 15 16 17 18 19 20 21 22 23 24 25 26 27 28
000
FTUS43 KBIS 021723
TAFMOT
TAF
KMOT 021723Z 0218/0318 30006KT 2SM FU BKN030
     FM030200 34007KT 4SM FU SKC=

USA.gov is the U.S. government's official web portal to all federal, state and local government web resources and services.